ADDS METAR Data INFO
IDs: Format: Raw Decoded Include TAF

Data at: 2329 UTC 19 Oct 2017

KAFN 192252Z AUTO 19009KT 10SM CLR 17/07 A3000 RMK AO2 SLP166 T01670072
KAFN 192152Z AUTO 19007KT 10SM CLR 18/06 A2999 RMK AO2 SLP164 T01780061
KAFN 192052Z AUTO 21008G15KT 10SM CLR 19/04 A3001 RMK AO2 SLP168 T01940044 56024
KAFN 191952Z AUTO 21012G19KT 10SM CLR 21/05 A3002 RMK AO2 SLP173 T02060050
KAFN 191852Z AUTO 22008G15KT 10SM CLR 21/06 A3005 RMK AO2 SLP183 T02110056
KAFN 191752Z AUTO 21009G19KT 10SM CLR 21/06 A3008 RMK AO2 SLP192 T02110061 10211 20061 58029
KAFN 191652Z AUTO 22011G19KT 10SM CLR 20/07 A3012 RMK AO2 SLP204 T02000067
KAFN 191552Z AUTO 23006G19KT 10SM CLR 19/07 A3015 RMK AO2 SLP216 T01890067
KAFN 191452Z AUTO 21009G15KT 10SM CLR 16/09 A3017 RMK AO2 SLP223 T01610089 58011
KAFN 191352Z AUTO 22007KT 10SM CLR 12/09 A3019 RMK AO2 SLP231 T01220094
KAFN 191252Z AUTO 21004KT 9SM CLR 10/09 A3020 RMK AO2 SLP235 T01000089
KAFN 191207Z AUTO 18005KT 3SM BR FEW003 07/07 A3020 RMK AO2 T00670067
KAFN 191200Z AUTO 18006KT 2 1/2SM BR FEW003 07/07 A3020 RMK AO2 T00670067
KAFN 191152Z AUTO 18005KT 3SM BR SCT003 06/06 A3020 RMK AO2 SLP238 T00610061 10061 20028 56007
KAFN 191149Z AUTO 18005KT 3SM BR SCT003 06/06 A3020 RMK AO2
KAFN 191123Z AUTO 18005KT 4SM BR BKN002 04/04 A3021 RMK AO2 T00440044
KAFN 191057Z AUTO 17005KT 3SM BR FEW004 04/04 A3021 RMK AO2 T00390039
KAFN 191052Z AUTO 17005KT 1 1/2SM BR FEW004 04/04 A3021 RMK AO2 SLP241 T00390039
KAFN 191045Z AUTO 17004KT 1 3/4SM BR FEW004 04/04 A3021 RMK AO2 T00390039
KAFN 190952Z AUTO 00000KT 10SM FEW001 03/03 A3022 RMK AO2 SLP244 T00330028
KAFN 190937Z AUTO 00000KT 10SM FEW001 03/03 A3022 RMK AO2 T00330033
KAFN 190852Z AUTO 00000KT 10SM CLR 03/03 A3023 RMK AO2 SLP244 T00330033 56009
KAFN 190752Z AUTO 00000KT 10SM CLR 04/04 A3024 RMK AO2 SLP245 T00390039
KAFN 190652Z AUTO 00000KT 10SM CLR 04/04 A3024 RMK AO2 SLP249 T00390039
KAFN 190552Z AUTO 00000KT 10SM CLR 05/05 A3025 RMK AO2 SLP253 T00500050 10094 20050 55008
KAFN 190452Z AUTO 00000KT 10SM CLR 06/05 A3025 RMK AO2 SLP253 T00560050 402110039
KAFN 190352Z AUTO 19003KT 10SM CLR 06/06 A3027 RMK AO2 SLP257 T00610061
KAFN 190252Z AUTO 00000KT 10SM CLR 07/07 A3028 RMK AO2 SLP261 T00670067 50004
KAFN 190152Z AUTO 17004KT 10SM CLR 08/07 A3028 RMK AO2 SLP263 T00780072
KAFN 190052Z AUTO 00000KT 10SM CLR 08/07 A3027 RMK AO2 SLP262 T00830072
KAFN 182352Z AUTO 00000KT 10SM CLR 10/08 A3027 RMK AO2 SLP260 T01000083 10211 20100 51013
KAFN 182252Z AUTO 18003KT 10SM CLR 11/09 A3026 RMK AO2 SLP258 T01110089
KAFN 182152Z AUTO 00000KT 10SM CLR 15/09 A3024 RMK AO2 SLP249 T01500094
KAFN 182052Z AUTO VRB05KT 10SM CLR 19/06 A3023 RMK AO2 SLP244 T01940056 55001
KAFN 181952Z AUTO VRB03KT 10SM CLR 21/03 A3023 RMK AO2 SLP242 T02110033
KAFN 181852Z AUTO 26005KT 10SM CLR 21/03 A3023 RMK AO2 SLP242 T02060028
KAFN 181752Z AUTO 26007KT 10SM CLR 19/03 A3023 RMK AO2 SLP245 T01940033 10200 20050 58008
KAFN 181652Z AUTO 00000KT 10SM CLR 18/05 A3025 RMK AO2 SLP250 T01830050
KAFN 181552Z AUTO 25006KT 10SM CLR 17/06 A3027 RMK AO2 SLP257 T01720056
KAFN 181452Z AUTO 14004KT 10SM CLR 15/07 A3026 RMK AO2 SLP254 T01500067 50008
KAFN 181352Z AUTO 21006KT 10SM CLR 11/05 A3026 RMK AO2 SLP257 T01110050
KAFN 181252Z AUTO 17007KT 10SM CLR 08/04 A3025 RMK AO2 SLP256 T00780039
KAFN 181152Z AUTO 16005KT 10SM CLR 05/04 A3023 RMK AO2 SLP251 T00500039 10067 20039 53012